sensor_id;sensor_type;location;lat;lon;timestamp;temperature;humidity
12053;DHT22;6087;48.982;12.064;2023-03-05T00:00:14;1.20;99.90
12053;DHT22;6087;48.982;12.064;2023-03-05T00:02:43;1.20;16.40
12053;DHT22;6087;48.982;12.064;2023-03-05T00:05:10;1.20;96.50
12053;DHT22;6087;48.982;12.064;2023-03-05T00:07:41;1.20;1.00
12053;DHT22;6087;48.982;12.064;2023-03-05T00:10:10;1.20;1.00
12053;DHT22;6087;48.982;12.064;2023-03-05T00:12:40;1.20;99.90
12053;DHT22;6087;48.982;12.064;2023-03-05T00:15:08;1.20;1.00
12053;DHT22;6087;48.982;12.064;2023-03-05T00:17:35;1.10;99.90
12053;DHT22;6087;48.982;12.064;2023-03-05T00:20:06;1.10;99.90
12053;DHT22;6087;48.982;12.064;2023-03-05T00:22:33;1.20;99.90
12053;DHT22;6087;48.982;12.064;2023-03-05T00:25:00;1.10;99.90
12053;DHT22;6087;48.982;12.064;2023-03-05T00:27:29;1.10;1.00
12053;DHT22;6087;48.982;12.064;2023-03-05T00:29:59;1.10;99.90
12053;DHT22;6087;48.982;12.064;2023-03-05T00:32:25;1.00;1.00
12053;DHT22;6087;48.982;12.064;2023-03-05T00:34:52;1.00;1.00
12053;DHT22;6087;48.982;12.064;2023-03-05T00:37:19;1.10;1.00
12053;DHT22;6087;48.982;12.064;2023-03-05T00:39:46;1.10;1.00
12053;DHT22;6087;48.982;12.064;2023-03-05T00:42:13;1.00;39.40
12053;DHT22;6087;48.982;12.064;2023-03-05T00:44:41;1.00;1.00
12053;DHT22;6087;48.982;12.064;2023-03-05T00:47:08;1.00;1.00
12053;DHT22;6087;48.982;12.064;2023-03-05T00:49:35;1.00;1.00
12053;DHT22;6087;48.982;12.064;2023-03-05T00:52:02;1.10;1.00
12053;DHT22;6087;48.982;12.064;2023-03-05T00:54:28;1.10;99.90
12053;DHT22;6087;48.982;12.064;2023-03-05T00:56:55;1.10;99.90
12053;DHT22;6087;48.982;12.064;2023-03-05T00:59:22;1.10;1.00
12053;DHT22;6087;48.982;12.064;2023-03-05T01:01:50;1.10;99.90
12053;DHT22;6087;48.982;12.064;2023-03-05T01:04:17;1.10;99.90
12053;DHT22;6087;48.982;12.064;2023-03-05T01:06:44;1.10;99.90
12053;DHT22;6087;48.982;12.064;2023-03-05T01:09:11;1.10;99.90
12053;DHT22;6087;48.982;12.064;2023-03-05T01:11:38;1.10;99.90
12053;DHT22;6087;48.982;12.064;2023-03-05T01:14:05;1.20;1.00
12053;DHT22;6087;48.982;12.064;2023-03-05T01:16:32;1.10;99.90
12053;DHT22;6087;48.982;12.064;2023-03-05T01:19:00;1.10;99.90
12053;DHT22;6087;48.982;12.064;2023-03-05T01:21:27;1.10;99.90
12053;DHT22;6087;48.982;12.064;2023-03-05T01:23:54;1.20;99.90
12053;DHT22;6087;48.982;12.064;2023-03-05T01:26:21;1.20;99.90
12053;DHT22;6087;48.982;12.064;2023-03-05T01:28:48;1.20;1.00
12053;DHT22;6087;48.982;12.064;2023-03-05T01:31:14;1.20;1.00
12053;DHT22;6087;48.982;12.064;2023-03-05T01:33:41;1.20;17.80
12053;DHT22;6087;48.982;12.064;2023-03-05T01:36:12;1.10;99.90
12053;DHT22;6087;48.982;12.064;2023-03-05T01:38:41;1.10;99.90
12053;DHT22;6087;48.982;12.064;2023-03-05T01:41:08;1.00;99.90
12053;DHT22;6087;48.982;12.064;2023-03-05T01:43:36;1.10;99.90
12053;DHT22;6087;48.982;12.064;2023-03-05T01:46:29;1.10;99.90
12053;DHT22;6087;48.982;12.064;2023-03-05T01:49:02;1.10;99.90
12053;DHT22;6087;48.982;12.064;2023-03-05T01:51:34;1.10;1.00
12053;DHT22;6087;48.982;12.064;2023-03-05T01:54:03;1.20;1.00
12053;DHT22;6087;48.982;12.064;2023-03-05T01:56:32;1.10;99.90
12053;DHT22;6087;48.982;12.064;2023-03-05T01:59:00;1.10;99.90
12053;DHT22;6087;48.982;12.064;2023-03-05T02:01:35;1.20;1.00
12053;DHT22;6087;48.982;12.064;2023-03-05T02:04:04;1.20;1.00
12053;DHT22;6087;48.982;12.064;2023-03-05T02:06:33;1.20;99.90
12053;DHT22;6087;48.982;12.064;2023-03-05T02:09:09;1.20;1.00
12053;DHT22;6087;48.982;12.064;2023-03-05T02:11:36;1.20;1.00
12053;DHT22;6087;48.982;12.064;2023-03-05T02:14:04;1.20;1.00
12053;DHT22;6087;48.982;12.064;2023-03-05T02:16:32;1.10;99.90
12053;DHT22;6087;48.982;12.064;2023-03-05T02:19:05;1.20;1.00
12053;DHT22;6087;48.982;12.064;2023-03-05T02:21:38;1.20;1.00
12053;DHT22;6087;48.982;12.064;2023-03-05T02:24:10;1.20;1.00
12053;DHT22;6087;48.982;12.064;2023-03-05T02:26:44;1.20;53.10
12053;DHT22;6087;48.982;12.064;2023-03-05T02:29:14;1.10;15.30
12053;DHT22;6087;48.982;12.064;2023-03-05T02:31:43;1.20;1.00
12053;DHT22;6087;48.982;12.064;2023-03-05T02:34:10;1.10;99.90
12053;DHT22;6087;48.982;12.064;2023-03-05T02:36:38;1.10;99.90
12053;DHT22;6087;48.982;12.064;2023-03-05T02:39:05;1.10;1.00
12053;DHT22;6087;48.982;12.064;2023-03-05T02:41:33;1.10;4.30
12053;DHT22;6087;48.982;12.064;2023-03-05T02:44:00;1.10;1.00
12053;DHT22;6087;48.982;12.064;2023-03-05T02:46:26;1.20;1.00
12053;DHT22;6087;48.982;12.064;2023-03-05T02:48:53;1.20;1.00
12053;DHT22;6087;48.982;12.064;2023-03-05T02:51:20;1.30;99.90
12053;DHT22;6087;48.982;12.064;2023-03-05T02:53:48;1.30;99.90
12053;DHT22;6087;48.982;12.064;2023-03-05T02:56:20;1.20;1.00
12053;DHT22;6087;48.982;12.064;2023-03-05T02:58:47;1.20;18.30
12053;DHT22;6087;48.982;12.064;2023-03-05T03:01:14;1.20;1.00
12053;DHT22;6087;48.982;12.064;2023-03-05T03:03:40;1.20;99.90
12053;DHT22;6087;48.982;12.064;2023-03-05T03:06:07;1.20;1.00
12053;DHT22;6087;48.982;12.064;2023-03-05T03:08:34;1.10;99.90
12053;DHT22;6087;48.982;12.064;2023-03-05T03:11:10;1.20;1.00
12053;DHT22;6087;48.982;12.064;2023-03-05T03:13:38;1.20;51.00
12053;DHT22;6087;48.982;12.064;2023-03-05T03:16:09;1.20;1.00
12053;DHT22;6087;48.982;12.064;2023-03-05T03:18:37;1.20;1.00
12053;DHT22;6087;48.982;12.064;2023-03-05T03:24:27;1.20;1.00
12053;DHT22;6087;48.982;12.064;2023-03-05T03:26:56;1.10;99.90
12053;DHT22;6087;48.982;12.064;2023-03-05T03:29:23;1.10;99.90
12053;DHT22;6087;48.982;12.064;2023-03-05T03:31:53;1.10;99.90
12053;DHT22;6087;48.982;12.064;2023-03-05T03:34:20;1.00;99.90
12053;DHT22;6087;48.982;12.064;2023-03-05T03:36:48;1.00;1.00
12053;DHT22;6087;48.982;12.064;2023-03-05T03:39:15;1.00;1.00
12053;DHT22;6087;48.982;12.064;2023-03-05T03:41:45;1.00;1.00
12053;DHT22;6087;48.982;12.064;2023-03-05T03:44:15;1.10;1.00
12053;DHT22;6087;48.982;12.064;2023-03-05T03:46:43;1.10;1.00
12053;DHT22;6087;48.982;12.064;2023-03-05T03:49:15;1.20;1.00
12053;DHT22;6087;48.982;12.064;2023-03-05T03:51:42;1.10;1.00
12053;DHT22;6087;48.982;12.064;2023-03-05T03:54:09;1.10;1.00
12053;DHT22;6087;48.982;12.064;2023-03-05T03:56:36;1.10;1.00
12053;DHT22;6087;48.982;12.064;2023-03-05T03:59:03;1.20;1.00
12053;DHT22;6087;48.982;12.064;2023-03-05T04:01:31;1.20;1.00
12053;DHT22;6087;48.982;12.064;2023-03-05T04:03:58;1.10;1.00
12053;DHT22;6087;48.982;12.064;2023-03-05T04:06:25;1.10;1.00
12053;DHT22;6087;48.982;12.064;2023-03-05T04:08:52;1.10;1.00
12053;DHT22;6087;48.982;12.064;2023-03-05T04:11:19;1.10;1.00
12053;DHT22;6087;48.982;12.064;2023-03-05T04:13:46;1.10;1.00
12053;DHT22;6087;48.982;12.064;2023-03-05T04:16:15;1.10;1.00
12053;DHT22;6087;48.982;12.064;2023-03-05T04:18:46;1.10;1.00
12053;DHT22;6087;48.982;12.064;2023-03-05T04:21:13;1.20;1.00
12053;DHT22;6087;48.982;12.064;2023-03-05T04:23:40;1.20;1.00
12053;DHT22;6087;48.982;12.064;2023-03-05T04:26:07;1.20;1.00
12053;DHT22;6087;48.982;12.064;2023-03-05T04:28:34;1.20;1.00
12053;DHT22;6087;48.982;12.064;2023-03-05T04:31:01;1.30;1.00
12053;DHT22;6087;48.982;12.064;2023-03-05T04:33:28;1.30;1.00
12053;DHT22;6087;48.982;12.064;2023-03-05T04:35:56;1.30;99.90
12053;DHT22;6087;48.982;12.064;2023-03-05T04:38:23;1.30;99.90
12053;DHT22;6087;48.982;12.064;2023-03-05T04:40:50;1.40;99.90
12053;DHT22;6087;48.982;12.064;2023-03-05T04:43:17;1.30;99.90
12053;DHT22;6087;48.982;12.064;2023-03-05T04:45:44;1.20;1.00
12053;DHT22;6087;48.982;12.064;2023-03-05T04:48:11;1.30;99.90
12053;DHT22;6087;48.982;12.064;2023-03-05T04:50:38;1.30;99.90
12053;DHT22;6087;48.982;12.064;2023-03-05T04:53:07;1.30;99.90
12053;DHT22;6087;48.982;12.064;2023-03-05T04:55:34;1.30;99.90
12053;DHT22;6087;48.982;12.064;2023-03-05T04:58:00;1.30;99.90
12053;DHT22;6087;48.982;12.064;2023-03-05T05:00:27;1.40;99.90
12053;DHT22;6087;48.982;12.064;2023-03-05T05:02:54;1.30;99.90
12053;DHT22;6087;48.982;12.064;2023-03-05T05:05:23;1.30;99.90
12053;DHT22;6087;48.982;12.064;2023-03-05T05:07:52;1.30;99.90
12053;DHT22;6087;48.982;12.064;2023-03-05T05:10:21;1.30;1.00
12053;DHT22;6087;48.982;12.064;2023-03-05T05:12:48;1.30;99.90
12053;DHT22;6087;48.982;12.064;2023-03-05T05:15:15;1.30;99.90
12053;DHT22;6087;48.982;12.064;2023-03-05T05:17:42;1.30;1.00
12053;DHT22;6087;48.982;12.064;2023-03-05T05:20:11;1.30;99.90
12053;DHT22;6087;48.982;12.064;2023-03-05T05:22:38;1.30;1.00
12053;DHT22;6087;48.982;12.064;2023-03-05T05:25:06;1.30;99.90
12053;DHT22;6087;48.982;12.064;2023-03-05T05:27:37;1.40;99.90
12053;DHT22;6087;48.982;12.064;2023-03-05T05:30:05;1.30;99.90
12053;DHT22;6087;48.982;12.064;2023-03-05T05:32:32;1.30;99.90
12053;DHT22;6087;48.982;12.064;2023-03-05T05:34:59;1.30;1.00
12053;DHT22;6087;48.982;12.064;2023-03-05T05:37:28;1.40;99.90
12053;DHT22;6087;48.982;12.064;2023-03-05T05:39:55;1.30;99.90
12053;DHT22;6087;48.982;12.064;2023-03-05T05:42:23;1.30;1.00
12053;DHT22;6087;48.982;12.064;2023-03-05T05:44:51;1.30;1.00
12053;DHT22;6087;48.982;12.064;2023-03-05T05:47:20;1.30;99.90
12053;DHT22;6087;48.982;12.064;2023-03-05T05:49:46;1.40;99.90
12053;DHT22;6087;48.982;12.064;2023-03-05T05:52:13;1.40;99.90
12053;DHT22;6087;48.982;12.064;2023-03-05T05:54:40;1.30;1.00
12053;DHT22;6087;48.982;12.064;2023-03-05T05:57:07;1.30;1.00
12053;DHT22;6087;48.982;12.064;2023-03-05T05:59:34;1.30;1.00
12053;DHT22;6087;48.982;12.064;2023-03-05T06:02:03;1.30;1.00
12053;DHT22;6087;48.982;12.064;2023-03-05T06:04:30;1.40;99.90
12053;DHT22;6087;48.982;12.064;2023-03-05T06:06:57;1.30;1.00
12053;DHT22;6087;48.982;12.064;2023-03-05T06:09:25;1.30;1.00
12053;DHT22;6087;48.982;12.064;2023-03-05T06:11:52;1.30;1.00
12053;DHT22;6087;48.982;12.064;2023-03-05T06:14:19;1.30;1.00
12053;DHT22;6087;48.982;12.064;2023-03-05T06:16:46;1.30;1.00
12053;DHT22;6087;48.982;12.064;2023-03-05T06:19:15;1.30;1.00
12053;DHT22;6087;48.982;12.064;2023-03-05T06:21:42;1.30;1.00
12053;DHT22;6087;48.982;12.064;2023-03-05T06:24:09;1.30;1.00
12053;DHT22;6087;48.982;12.064;2023-03-05T06:26:37;1.30;1.00
12053;DHT22;6087;48.982;12.064;2023-03-05T06:29:05;1.30;1.00
12053;DHT22;6087;48.982;12.064;2023-03-05T06:31:32;1.40;1.00
12053;DHT22;6087;48.982;12.064;2023-03-05T06:33:59;1.40;1.00
12053;DHT22;6087;48.982;12.064;2023-03-05T06:36:28;1.40;1.00
12053;DHT22;6087;48.982;12.064;2023-03-05T06:38:56;1.50;1.00
12053;DHT22;6087;48.982;12.064;2023-03-05T06:41:26;1.50;1.00
12053;DHT22;6087;48.982;12.064;2023-03-05T06:43:57;1.50;1.00
12053;DHT22;6087;48.982;12.064;2023-03-05T06:46:26;1.50;1.00
12053;DHT22;6087;48.982;12.064;2023-03-05T06:48:55;1.50;1.00
12053;DHT22;6087;48.982;12.064;2023-03-05T06:51:23;1.50;1.00
12053;DHT22;6087;48.982;12.064;2023-03-05T06:53:52;1.50;1.00
12053;DHT22;6087;48.982;12.064;2023-03-05T06:56:19;1.50;99.90
12053;DHT22;6087;48.982;12.064;2023-03-05T06:58:49;1.60;99.90
12053;DHT22;6087;48.982;12.064;2023-03-05T07:01:16;1.60;99.90
12053;DHT22;6087;48.982;12.064;2023-03-05T07:03:44;1.60;1.00
12053;DHT22;6087;48.982;12.064;2023-03-05T07:06:16;1.60;99.90
12053;DHT22;6087;48.982;12.064;2023-03-05T07:08:47;1.50;1.00
12053;DHT22;6087;48.982;12.064;2023-03-05T07:11:18;1.40;1.00
12053;DHT22;6087;48.982;12.064;2023-03-05T07:13:45;1.40;1.00
12053;DHT22;6087;48.982;12.064;2023-03-05T07:16:15;1.50;1.00
12053;DHT22;6087;48.982;12.064;2023-03-05T07:18:43;1.50;1.00
12053;DHT22;6087;48.982;12.064;2023-03-05T07:21:14;1.50;1.00
12053;DHT22;6087;48.982;12.064;2023-03-05T07:23:41;1.50;1.00
12053;DHT22;6087;48.982;12.064;2023-03-05T07:26:11;1.40;1.00
12053;DHT22;6087;48.982;12.064;2023-03-05T07:28:47;1.50;1.00
12053;DHT22;6087;48.982;12.064;2023-03-05T07:31:16;1.60;1.00
12053;DHT22;6087;48.982;12.064;2023-03-05T07:33:44;1.60;1.00
12053;DHT22;6087;48.982;12.064;2023-03-05T07:36:12;1.60;1.00
12053;DHT22;6087;48.982;12.064;2023-03-05T07:38:39;1.60;1.00
12053;DHT22;6087;48.982;12.064;2023-03-05T07:41:07;1.70;1.00
12053;DHT22;6087;48.982;12.064;2023-03-05T07:43:35;1.60;1.00
12053;DHT22;6087;48.982;12.064;2023-03-05T07:46:05;1.70;1.00
12053;DHT22;6087;48.982;12.064;2023-03-05T07:48:36;1.70;1.00
12053;DHT22;6087;48.982;12.064;2023-03-05T07:51:05;1.70;1.00
12053;DHT22;6087;48.982;12.064;2023-03-05T07:53:32;1.90;1.00
12053;DHT22;6087;48.982;12.064;2023-03-05T07:55:59;1.90;99.90
12053;DHT22;6087;48.982;12.064;2023-03-05T07:58:35;1.90;99.90
12053;DHT22;6087;48.982;12.064;2023-03-05T08:01:09;1.90;99.90
12053;DHT22;6087;48.982;12.064;2023-03-05T08:03:43;1.90;99.90
12053;DHT22;6087;48.982;12.064;2023-03-05T08:06:11;1.80;99.90
12053;DHT22;6087;48.982;12.064;2023-03-05T08:08:38;1.90;1.00
12053;DHT22;6087;48.982;12.064;2023-03-05T08:11:06;1.80;99.90
12053;DHT22;6087;48.982;12.064;2023-03-05T08:13:33;1.90;99.90
12053;DHT22;6087;48.982;12.064;2023-03-05T08:16:05;1.90;99.90
12053;DHT22;6087;48.982;12.064;2023-03-05T08:18:32;1.90;99.90
12053;DHT22;6087;48.982;12.064;2023-03-05T08:20:59;1.90;99.90
12053;DHT22;6087;48.982;12.064;2023-03-05T08:23:26;2.00;99.90
12053;DHT22;6087;48.982;12.064;2023-03-05T08:25:59;2.00;1.00
12053;DHT22;6087;48.982;12.064;2023-03-05T08:28:26;1.90;98.60
12053;DHT22;6087;48.982;12.064;2023-03-05T08:30:53;2.00;1.00
12053;DHT22;6087;48.982;12.064;2023-03-05T08:33:28;2.00;1.00
12053;DHT22;6087;48.982;12.064;2023-03-05T08:35:58;2.00;1.00
12053;DHT22;6087;48.982;12.064;2023-03-05T08:38:24;1.90;1.00
12053;DHT22;6087;48.982;12.064;2023-03-05T08:40:51;2.00;1.00
12053;DHT22;6087;48.982;12.064;2023-03-05T08:43:18;2.00;1.00
12053;DHT22;6087;48.982;12.064;2023-03-05T08:45:48;2.00;99.90
12053;DHT22;6087;48.982;12.064;2023-03-05T08:48:15;2.00;99.90
12053;DHT22;6087;48.982;12.064;2023-03-05T08:50:44;1.90;24.40
12053;DHT22;6087;48.982;12.064;2023-03-05T08:53:14;2.00;99.90
12053;DHT22;6087;48.982;12.064;2023-03-05T08:55:52;2.00;99.90
12053;DHT22;6087;48.982;12.064;2023-03-05T08:58:19;2.10;99.90
12053;DHT22;6087;48.982;12.064;2023-03-05T09:00:46;2.10;1.00
12053;DHT22;6087;48.982;12.064;2023-03-05T09:03:13;2.10;99.90
12053;DHT22;6087;48.982;12.064;2023-03-05T09:05:40;2.10;1.00
12053;DHT22;6087;48.982;12.064;2023-03-05T09:08:14;2.10;1.00
12053;DHT22;6087;48.982;12.064;2023-03-05T09:10:41;2.10;1.00
12053;DHT22;6087;48.982;12.064;2023-03-05T09:13:09;2.10;99.90
12053;DHT22;6087;48.982;12.064;2023-03-05T09:15:36;2.20;99.90
12053;DHT22;6087;48.982;12.064;2023-03-05T09:18:03;2.10;1.00
12053;DHT22;6087;48.982;12.064;2023-03-05T09:20:30;2.20;1.00
12053;DHT22;6087;48.982;12.064;2023-03-05T09:22:58;2.10;1.00
12053;DHT22;6087;48.982;12.064;2023-03-05T09:25:26;2.20;25.50
12053;DHT22;6087;48.982;12.064;2023-03-05T09:27:53;2.20;1.00
12053;DHT22;6087;48.982;12.064;2023-03-05T09:30:20;2.20;1.00
12053;DHT22;6087;48.982;12.064;2023-03-05T09:32:47;2.30;1.00
12053;DHT22;6087;48.982;12.064;2023-03-05T09:35:15;2.30;1.00
12053;DHT22;6087;48.982;12.064;2023-03-05T09:37:42;2.30;99.90
12053;DHT22;6087;48.982;12.064;2023-03-05T09:40:13;2.30;1.00
12053;DHT22;6087;48.982;12.064;2023-03-05T09:43:00;2.40;99.90
12053;DHT22;6087;48.982;12.064;2023-03-05T09:45:34;2.30;1.00
12053;DHT22;6087;48.982;12.064;2023-03-05T09:48:11;2.30;1.00
12053;DHT22;6087;48.982;12.064;2023-03-05T09:50:43;2.30;99.90
12053;DHT22;6087;48.982;12.064;2023-03-05T09:53:20;2.40;99.90
12053;DHT22;6087;48.982;12.064;2023-03-05T09:55:51;2.30;99.90
12053;DHT22;6087;48.982;12.064;2023-03-05T09:58:30;2.30;3.70
12053;DHT22;6087;48.982;12.064;2023-03-05T10:01:00;2.40;1.00
12053;DHT22;6087;48.982;12.064;2023-03-05T10:03:33;2.30;1.00
12053;DHT22;6087;48.982;12.064;2023-03-05T10:06:05;2.40;1.00
12053;DHT22;6087;48.982;12.064;2023-03-05T10:08:45;2.50;1.00
12053;DHT22;6087;48.982;12.064;2023-03-05T10:11:33;2.50;1.00
12053;DHT22;6087;48.982;12.064;2023-03-05T10:14:13;2.50;44.40
12053;DHT22;6087;48.982;12.064;2023-03-05T10:16:52;2.50;1.00
12053;DHT22;6087;48.982;12.064;2023-03-05T10:19:51;2.50;1.00
12053;DHT22;6087;48.982;12.064;2023-03-05T10:22:21;2.60;99.90
12053;DHT22;6087;48.982;12.064;2023-03-05T10:25:09;2.60;1.00
12053;DHT22;6087;48.982;12.064;2023-03-05T10:27:46;2.60;99.90
12053;DHT22;6087;48.982;12.064;2023-03-05T10:30:26;2.70;1.00
12053;DHT22;6087;48.982;12.064;2023-03-05T10:33:05;2.70;1.00
12053;DHT22;6087;48.982;12.064;2023-03-05T10:35:47;2.70;99.90
12053;DHT22;6087;48.982;12.064;2023-03-05T10:38:27;2.80;1.00
12053;DHT22;6087;48.982;12.064;2023-03-05T10:40:59;2.80;1.00
12053;DHT22;6087;48.982;12.064;2023-03-05T10:43:35;2.80;99.90
12053;DHT22;6087;48.982;12.064;2023-03-05T10:46:13;2.80;99.90
12053;DHT22;6087;48.982;12.064;2023-03-05T10:48:45;2.80;1.00
12053;DHT22;6087;48.982;12.064;2023-03-05T10:51:18;2.80;1.00
12053;DHT22;6087;48.982;12.064;2023-03-05T10:53:55;2.90;99.90
12053;DHT22;6087;48.982;12.064;2023-03-05T10:56:25;2.90;1.00
12053;DHT22;6087;48.982;12.064;2023-03-05T10:58:52;2.80;99.90
12053;DHT22;6087;48.982;12.064;2023-03-05T11:01:22;2.80;99.90
12053;DHT22;6087;48.982;12.064;2023-03-05T11:03:55;2.80;99.90
12053;DHT22;6087;48.982;12.064;2023-03-05T11:06:34;2.80;1.00
12053;DHT22;6087;48.982;12.064;2023-03-05T11:09:15;2.80;99.90
12053;DHT22;6087;48.982;12.064;2023-03-05T11:11:43;2.80;1.00
12053;DHT22;6087;48.982;12.064;2023-03-05T11:14:22;2.80;12.50
12053;DHT22;6087;48.982;12.064;2023-03-05T11:16:56;2.80;1.00
12053;DHT22;6087;48.982;12.064;2023-03-05T11:19:30;2.80;1.00
12053;DHT22;6087;48.982;12.064;2023-03-05T11:22:14;2.90;1.00
12053;DHT22;6087;48.982;12.064;2023-03-05T11:24:41;2.90;1.00
12053;DHT22;6087;48.982;12.064;2023-03-05T11:27:29;2.80;99.90
12053;DHT22;6087;48.982;12.064;2023-03-05T11:29:57;2.90;99.90
12053;DHT22;6087;48.982;12.064;2023-03-05T11:32:27;2.90;99.90
12053;DHT22;6087;48.982;12.064;2023-03-05T11:34:55;3.00;99.90
12053;DHT22;6087;48.982;12.064;2023-03-05T11:37:24;3.00;99.90
12053;DHT22;6087;48.982;12.064;2023-03-05T11:40:13;3.00;99.90
12053;DHT22;6087;48.982;12.064;2023-03-05T11:42:42;3.00;99.90
12053;DHT22;6087;48.982;12.064;2023-03-05T11:45:15;3.00;99.10
12053;DHT22;6087;48.982;12.064;2023-03-05T11:47:48;3.00;99.90
12053;DHT22;6087;48.982;12.064;2023-03-05T11:50:20;3.10;1.00
12053;DHT22;6087;48.982;12.064;2023-03-05T11:52:49;3.10;1.00
12053;DHT22;6087;48.982;12.064;2023-03-05T11:55:18;3.10;1.00
12053;DHT22;6087;48.982;12.064;2023-03-05T11:57:51;3.10;1.00
12053;DHT22;6087;48.982;12.064;2023-03-05T12:00:26;3.20;1.00
12053;DHT22;6087;48.982;12.064;2023-03-05T12:02:58;3.30;1.00
12053;DHT22;6087;48.982;12.064;2023-03-05T12:05:27;3.20;1.00
12053;DHT22;6087;48.982;12.064;2023-03-05T12:07:57;3.20;99.90
12053;DHT22;6087;48.982;12.064;2023-03-05T12:10:26;3.20;99.90
12053;DHT22;6087;48.982;12.064;2023-03-05T12:12:57;3.20;11.30
12053;DHT22;6087;48.982;12.064;2023-03-05T12:15:46;3.10;1.00
12053;DHT22;6087;48.982;12.064;2023-03-05T12:18:23;3.00;1.00
12053;DHT22;6087;48.982;12.064;2023-03-05T12:20:59;3.00;1.00
12053;DHT22;6087;48.982;12.064;2023-03-05T12:23:28;3.00;1.00
12053;DHT22;6087;48.982;12.064;2023-03-05T12:26:09;3.00;1.00
12053;DHT22;6087;48.982;12.064;2023-03-05T12:28:53;3.00;1.00
12053;DHT22;6087;48.982;12.064;2023-03-05T12:31:36;3.00;1.00
12053;DHT22;6087;48.982;12.064;2023-03-05T12:37:56;3.10;1.00
12053;DHT22;6087;48.982;12.064;2023-03-05T12:40:25;3.10;1.00
12053;DHT22;6087;48.982;12.064;2023-03-05T12:42:54;3.10;1.00
12053;DHT22;6087;48.982;12.064;2023-03-05T12:45:36;3.10;1.00
12053;DHT22;6087;48.982;12.064;2023-03-05T12:51:12;3.10;1.00
12053;DHT22;6087;48.982;12.064;2023-03-05T12:53:40;3.10;1.00
12053;DHT22;6087;48.982;12.064;2023-03-05T12:56:17;3.00;1.00
12053;DHT22;6087;48.982;12.064;2023-03-05T12:58:46;3.00;1.00
12053;DHT22;6087;48.982;12.064;2023-03-05T13:01:33;3.00;1.00
12053;DHT22;6087;48.982;12.064;2023-03-05T13:04:04;3.00;1.00
12053;DHT22;6087;48.982;12.064;2023-03-05T13:06:36;3.00;1.00
12053;DHT22;6087;48.982;12.064;2023-03-05T13:09:12;2.90;1.00
12053;DHT22;6087;48.982;12.064;2023-03-05T13:11:42;2.90;1.00
12053;DHT22;6087;48.982;12.064;2023-03-05T13:17:26;3.00;1.00
12053;DHT22;6087;48.982;12.064;2023-03-05T13:19:54;3.00;1.00
12053;DHT22;6087;48.982;12.064;2023-03-05T13:22:21;3.00;1.00
12053;DHT22;6087;48.982;12.064;2023-03-05T13:25:03;3.00;1.00
12053;DHT22;6087;48.982;12.064;2023-03-05T13:27:31;2.80;1.00
12053;DHT22;6087;48.982;12.064;2023-03-05T13:29:58;2.90;1.00
12053;DHT22;6087;48.982;12.064;2023-03-05T13:32:27;2.90;1.00
12053;DHT22;6087;48.982;12.064;2023-03-05T13:34:56;2.90;1.00
12053;DHT22;6087;48.982;12.064;2023-03-05T13:37:24;2.90;1.00
12053;DHT22;6087;48.982;12.064;2023-03-05T13:39:56;3.00;99.90
12053;DHT22;6087;48.982;12.064;2023-03-05T13:42:25;2.90;99.90
12053;DHT22;6087;48.982;12.064;2023-03-05T13:44:53;2.90;99.90
12053;DHT22;6087;48.982;12.064;2023-03-05T13:47:22;2.80;99.90
12053;DHT22;6087;48.982;12.064;2023-03-05T13:49:54;2.70;99.90
12053;DHT22;6087;48.982;12.064;2023-03-05T13:52:26;2.70;99.90
12053;DHT22;6087;48.982;12.064;2023-03-05T13:54:56;2.70;99.90
12053;DHT22;6087;48.982;12.064;2023-03-05T13:57:34;2.80;99.90
12053;DHT22;6087;48.982;12.064;2023-03-05T14:00:02;2.80;99.90
12053;DHT22;6087;48.982;12.064;2023-03-05T14:02:29;2.70;99.90
12053;DHT22;6087;48.982;12.064;2023-03-05T14:04:57;2.70;99.90
12053;DHT22;6087;48.982;12.064;2023-03-05T14:07:28;2.80;99.90
12053;DHT22;6087;48.982;12.064;2023-03-05T14:09:58;2.80;99.90
12053;DHT22;6087;48.982;12.064;2023-03-05T14:12:30;2.90;99.90
12053;DHT22;6087;48.982;12.064;2023-03-05T14:15:00;2.90;99.90
12053;DHT22;6087;48.982;12.064;2023-03-05T14:17:37;2.90;99.90
12053;DHT22;6087;48.982;12.064;2023-03-05T14:22:50;2.90;97.90
12053;DHT22;6087;48.982;12.064;2023-03-05T14:25:30;2.80;99.90
12053;DHT22;6087;48.982;12.064;2023-03-05T14:28:03;2.90;99.80
12053;DHT22;6087;48.982;12.064;2023-03-05T14:30:31;2.90;96.40
12053;DHT22;6087;48.982;12.064;2023-03-05T14:33:01;2.90;97.00
12053;DHT22;6087;48.982;12.064;2023-03-05T14:35:28;2.90;99.90
12053;DHT22;6087;48.982;12.064;2023-03-05T14:37:57;2.80;98.60
12053;DHT22;6087;48.982;12.064;2023-03-05T14:40:29;2.80;91.20
12053;DHT22;6087;48.982;12.064;2023-03-05T14:42:57;2.80;95.10
12053;DHT22;6087;48.982;12.064;2023-03-05T14:45:26;2.80;88.30
12053;DHT22;6087;48.982;12.064;2023-03-05T14:47:55;2.70;95.20
12053;DHT22;6087;48.982;12.064;2023-03-05T14:50:24;2.80;99.90
12053;DHT22;6087;48.982;12.064;2023-03-05T14:52:54;2.70;99.90
12053;DHT22;6087;48.982;12.064;2023-03-05T14:55:24;2.80;99.90
12053;DHT22;6087;48.982;12.064;2023-03-05T14:57:56;2.80;99.90
12053;DHT22;6087;48.982;12.064;2023-03-05T15:00:26;2.80;97.60
12053;DHT22;6087;48.982;12.064;2023-03-05T15:02:54;2.80;96.20
12053;DHT22;6087;48.982;12.064;2023-03-05T15:05:22;2.90;98.00
12053;DHT22;6087;48.982;12.064;2023-03-05T15:07:49;2.90;97.60
12053;DHT22;6087;48.982;12.064;2023-03-05T15:10:18;2.80;86.30
12053;DHT22;6087;48.982;12.064;2023-03-05T15:12:45;2.90;85.30
12053;DHT22;6087;48.982;12.064;2023-03-05T15:15:14;2.80;91.90
12053;DHT22;6087;48.982;12.064;2023-03-05T15:17:43;2.80;91.10
12053;DHT22;6087;48.982;12.064;2023-03-05T15:20:15;2.80;92.20
12053;DHT22;6087;48.982;12.064;2023-03-05T15:22:42;2.80;96.50
12053;DHT22;6087;48.982;12.064;2023-03-05T15:25:09;2.90;91.20
12053;DHT22;6087;48.982;12.064;2023-03-05T15:27:37;2.80;91.60
12053;DHT22;6087;48.982;12.064;2023-03-05T15:30:05;2.80;86.80
12053;DHT22;6087;48.982;12.064;2023-03-05T15:32:34;2.70;87.60
12053;DHT22;6087;48.982;12.064;2023-03-05T15:35:01;2.80;92.50
12053;DHT22;6087;48.982;12.064;2023-03-05T15:37:27;2.80;90.60
12053;DHT22;6087;48.982;12.064;2023-03-05T15:39:57;2.80;83.60
12053;DHT22;6087;48.982;12.064;2023-03-05T15:42:27;2.80;84.70
12053;DHT22;6087;48.982;12.064;2023-03-05T15:44:54;2.80;67.90
12053;DHT22;6087;48.982;12.064;2023-03-05T15:47:21;2.80;37.90
12053;DHT22;6087;48.982;12.064;2023-03-05T15:49:52;2.70;36.30
12053;DHT22;6087;48.982;12.064;2023-03-05T15:52:28;2.70;29.30
12053;DHT22;6087;48.982;12.064;2023-03-05T15:54:55;2.70;19.10
12053;DHT22;6087;48.982;12.064;2023-03-05T15:57:21;2.70;17.20
12053;DHT22;6087;48.982;12.064;2023-03-05T15:59:49;2.70;6.00
12053;DHT22;6087;48.982;12.064;2023-03-05T16:02:16;2.70;11.50
12053;DHT22;6087;48.982;12.064;2023-03-05T16:04:43;2.70;10.40
12053;DHT22;6087;48.982;12.064;2023-03-05T16:07:13;2.70;5.70
12053;DHT22;6087;48.982;12.064;2023-03-05T16:09:44;2.70;15.50
12053;DHT22;6087;48.982;12.064;2023-03-05T16:12:15;2.70;13.20
12053;DHT22;6087;48.982;12.064;2023-03-05T16:14:44;2.70;8.00
12053;DHT22;6087;48.982;12.064;2023-03-05T16:17:12;2.70;1.00
12053;DHT22;6087;48.982;12.064;2023-03-05T16:19:42;2.70;1.00
12053;DHT22;6087;48.982;12.064;2023-03-05T16:22:14;2.60;1.00
12053;DHT22;6087;48.982;12.064;2023-03-05T16:24:42;2.60;6.70
12053;DHT22;6087;48.982;12.064;2023-03-05T16:27:09;2.60;1.00